< < Back
Terminal Aerodrome Forecast


Current Version              Previous Versions:   1  2  3  4  5  6  7  8  9  

Terminal Aerodrome Forecast

816
FTUS42 KTAE 301700
TAFTLH
TAF
KTLH 301720Z 3018/3118 VRB03KT P6SM SCT029 BKN070
     FM310200 31005KT P6SM SKC=



Latest METAR

056
SAUS80 KWBC 301900 RRB
MTRTLH
METAR KTLH 301853Z 11003KT 10SM BKN090 21/10 A2996 RMK AO2 SLP144
T02110100 $


USA.gov is the U.S. government's official web portal to all federal, state and local government web resources and services.